sensor_id;sensor_type;location;lat;lon;timestamp;temperature;humidity
34644;DHT22;26931;43.498;-1.506;2023-02-22T00:01:12;14.70;99.90
34644;DHT22;26931;43.498;-1.506;2023-02-22T00:03:52;14.70;99.90
34644;DHT22;26931;43.498;-1.506;2023-02-22T00:06:20;14.60;99.90
34644;DHT22;26931;43.498;-1.506;2023-02-22T00:08:46;14.60;99.90
34644;DHT22;26931;43.498;-1.506;2023-02-22T00:11:12;14.70;99.90
34644;DHT22;26931;43.498;-1.506;2023-02-22T00:13:39;14.70;99.90
34644;DHT22;26931;43.498;-1.506;2023-02-22T00:16:08;14.60;99.90
34644;DHT22;26931;43.498;-1.506;2023-02-22T00:18:37;14.60;99.90
34644;DHT22;26931;43.498;-1.506;2023-02-22T00:21:04;14.60;99.90
34644;DHT22;26931;43.498;-1.506;2023-02-22T00:23:35;14.60;99.90
34644;DHT22;26931;43.498;-1.506;2023-02-22T00:26:04;14.70;99.90
34644;DHT22;26931;43.498;-1.506;2023-02-22T00:28:30;14.70;99.90
34644;DHT22;26931;43.498;-1.506;2023-02-22T00:30:56;14.70;99.90
34644;DHT22;26931;43.498;-1.506;2023-02-22T00:33:22;14.70;99.90
34644;DHT22;26931;43.498;-1.506;2023-02-22T00:35:47;14.70;99.90
34644;DHT22;26931;43.498;-1.506;2023-02-22T00:38:14;14.70;99.90
34644;DHT22;26931;43.498;-1.506;2023-02-22T00:40:40;14.70;99.90
34644;DHT22;26931;43.498;-1.506;2023-02-22T00:43:05;14.70;99.90
34644;DHT22;26931;43.498;-1.506;2023-02-22T00:45:32;14.70;99.90
34644;DHT22;26931;43.498;-1.506;2023-02-22T00:47:57;14.70;99.90
34644;DHT22;26931;43.498;-1.506;2023-02-22T00:50:24;14.70;99.90
34644;DHT22;26931;43.498;-1.506;2023-02-22T00:52:51;14.70;99.90
34644;DHT22;26931;43.498;-1.506;2023-02-22T00:55:18;14.70;99.90
34644;DHT22;26931;43.498;-1.506;2023-02-22T00:57:44;14.70;99.90
34644;DHT22;26931;43.498;-1.506;2023-02-22T01:00:14;14.70;99.90
34644;DHT22;26931;43.498;-1.506;2023-02-22T01:02:41;14.70;99.90
34644;DHT22;26931;43.498;-1.506;2023-02-22T01:05:07;14.70;99.90
34644;DHT22;26931;43.498;-1.506;2023-02-22T01:07:33;14.70;99.90
34644;DHT22;26931;43.498;-1.506;2023-02-22T01:09:59;14.70;99.90
34644;DHT22;26931;43.498;-1.506;2023-02-22T01:12:26;14.60;99.90
34644;DHT22;26931;43.498;-1.506;2023-02-22T01:14:51;14.70;99.90
34644;DHT22;26931;43.498;-1.506;2023-02-22T01:17:21;14.80;99.90
34644;DHT22;26931;43.498;-1.506;2023-02-22T01:19:47;14.70;99.90
34644;DHT22;26931;43.498;-1.506;2023-02-22T01:22:13;14.80;99.90
34644;DHT22;26931;43.498;-1.506;2023-02-22T01:24:38;14.70;99.90
34644;DHT22;26931;43.498;-1.506;2023-02-22T01:27:04;14.70;99.90
34644;DHT22;26931;43.498;-1.506;2023-02-22T01:29:29;14.70;99.90
34644;DHT22;26931;43.498;-1.506;2023-02-22T01:31:55;14.80;99.90
34644;DHT22;26931;43.498;-1.506;2023-02-22T01:34:22;14.70;99.90
34644;DHT22;26931;43.498;-1.506;2023-02-22T01:36:48;14.70;99.90
34644;DHT22;26931;43.498;-1.506;2023-02-22T01:39:14;14.70;99.90
34644;DHT22;26931;43.498;-1.506;2023-02-22T01:41:40;14.70;99.90
34644;DHT22;26931;43.498;-1.506;2023-02-22T01:46:50;14.60;99.90
34644;DHT22;26931;43.498;-1.506;2023-02-22T01:49:16;14.70;99.90
34644;DHT22;26931;43.498;-1.506;2023-02-22T01:51:43;14.70;99.90
34644;DHT22;26931;43.498;-1.506;2023-02-22T01:56:38;14.70;99.90
34644;DHT22;26931;43.498;-1.506;2023-02-22T01:59:06;14.60;99.90
34644;DHT22;26931;43.498;-1.506;2023-02-22T02:01:33;14.70;99.90
34644;DHT22;26931;43.498;-1.506;2023-02-22T02:04:00;14.60;99.90
34644;DHT22;26931;43.498;-1.506;2023-02-22T02:06:30;14.70;99.90
34644;DHT22;26931;43.498;-1.506;2023-02-22T02:11:37;14.60;99.90
34644;DHT22;26931;43.498;-1.506;2023-02-22T02:14:05;14.60;99.90
34644;DHT22;26931;43.498;-1.506;2023-02-22T02:16:36;14.60;99.90
34644;DHT22;26931;43.498;-1.506;2023-02-22T02:19:03;14.70;99.90
34644;DHT22;26931;43.498;-1.506;2023-02-22T02:21:48;14.60;99.90
34644;DHT22;26931;43.498;-1.506;2023-02-22T02:42:10;14.60;99.90
34644;DHT22;26931;43.498;-1.506;2023-02-22T02:44:42;14.60;99.90
34644;DHT22;26931;43.498;-1.506;2023-02-22T02:47:14;14.70;99.90
34644;DHT22;26931;43.498;-1.506;2023-02-22T02:49:59;14.60;99.90
34644;DHT22;26931;43.498;-1.506;2023-02-22T02:52:26;14.50;99.90
34644;DHT22;26931;43.498;-1.506;2023-02-22T02:54:52;14.60;99.90
34644;DHT22;26931;43.498;-1.506;2023-02-22T02:57:19;14.60;99.90
34644;DHT22;26931;43.498;-1.506;2023-02-22T02:59:45;14.60;99.90
34644;DHT22;26931;43.498;-1.506;2023-02-22T03:09:53;14.50;99.90
34644;DHT22;26931;43.498;-1.506;2023-02-22T03:12:27;14.60;99.90
34644;DHT22;26931;43.498;-1.506;2023-02-22T03:17:22;14.60;99.90
34644;DHT22;26931;43.498;-1.506;2023-02-22T03:19:55;14.50;99.90
34644;DHT22;26931;43.498;-1.506;2023-02-22T03:22:26;14.50;99.90
34644;DHT22;26931;43.498;-1.506;2023-02-22T03:25:07;14.50;99.90
34644;DHT22;26931;43.498;-1.506;2023-02-22T03:27:42;14.50;99.90
34644;DHT22;26931;43.498;-1.506;2023-02-22T03:30:12;14.40;99.90
34644;DHT22;26931;43.498;-1.506;2023-02-22T03:32:41;14.40;99.90
34644;DHT22;26931;43.498;-1.506;2023-02-22T03:35:13;14.40;99.90
34644;DHT22;26931;43.498;-1.506;2023-02-22T03:37:42;14.50;99.90
34644;DHT22;26931;43.498;-1.506;2023-02-22T03:40:09;14.50;99.90
34644;DHT22;26931;43.498;-1.506;2023-02-22T03:42:39;14.50;99.90
34644;DHT22;26931;43.498;-1.506;2023-02-22T03:45:05;14.50;99.90
34644;DHT22;26931;43.498;-1.506;2023-02-22T03:47:36;14.50;99.90
34644;DHT22;26931;43.498;-1.506;2023-02-22T03:50:14;14.40;99.90
34644;DHT22;26931;43.498;-1.506;2023-02-22T03:52:41;14.40;99.90
34644;DHT22;26931;43.498;-1.506;2023-02-22T03:55:08;14.40;99.90
34644;DHT22;26931;43.498;-1.506;2023-02-22T03:57:36;14.40;99.90
34644;DHT22;26931;43.498;-1.506;2023-02-22T04:00:04;14.40;99.90
34644;DHT22;26931;43.498;-1.506;2023-02-22T04:02:32;14.40;99.90
34644;DHT22;26931;43.498;-1.506;2023-02-22T04:04:58;14.30;99.90
34644;DHT22;26931;43.498;-1.506;2023-02-22T04:07:24;14.40;99.90
34644;DHT22;26931;43.498;-1.506;2023-02-22T04:09:49;14.30;99.90
34644;DHT22;26931;43.498;-1.506;2023-02-22T04:12:15;14.30;99.90
34644;DHT22;26931;43.498;-1.506;2023-02-22T04:14:41;14.30;99.90
34644;DHT22;26931;43.498;-1.506;2023-02-22T04:17:07;14.20;99.90
34644;DHT22;26931;43.498;-1.506;2023-02-22T04:19:33;14.20;99.90
34644;DHT22;26931;43.498;-1.506;2023-02-22T04:21:59;14.20;99.90
34644;DHT22;26931;43.498;-1.506;2023-02-22T04:24:24;14.30;99.90
34644;DHT22;26931;43.498;-1.506;2023-02-22T04:26:50;14.20;99.90
34644;DHT22;26931;43.498;-1.506;2023-02-22T04:29:16;14.30;99.90
34644;DHT22;26931;43.498;-1.506;2023-02-22T04:31:41;14.20;99.90
34644;DHT22;26931;43.498;-1.506;2023-02-22T04:34:07;14.20;99.90
34644;DHT22;26931;43.498;-1.506;2023-02-22T04:36:32;14.20;99.90
34644;DHT22;26931;43.498;-1.506;2023-02-22T04:38:58;14.20;99.90
34644;DHT22;26931;43.498;-1.506;2023-02-22T04:41:24;14.20;99.90
34644;DHT22;26931;43.498;-1.506;2023-02-22T04:43:49;14.20;99.90
34644;DHT22;26931;43.498;-1.506;2023-02-22T04:46:15;14.10;99.90
34644;DHT22;26931;43.498;-1.506;2023-02-22T04:48:41;14.10;99.90
34644;DHT22;26931;43.498;-1.506;2023-02-22T04:51:07;14.20;99.90
34644;DHT22;26931;43.498;-1.506;2023-02-22T04:53:33;14.10;99.90
34644;DHT22;26931;43.498;-1.506;2023-02-22T04:55:58;14.10;99.90
34644;DHT22;26931;43.498;-1.506;2023-02-22T04:58:24;14.10;99.90
34644;DHT22;26931;43.498;-1.506;2023-02-22T05:00:50;14.10;99.90
34644;DHT22;26931;43.498;-1.506;2023-02-22T05:03:15;14.10;99.90
34644;DHT22;26931;43.498;-1.506;2023-02-22T05:05:41;14.10;99.90
34644;DHT22;26931;43.498;-1.506;2023-02-22T05:08:06;14.00;99.90
34644;DHT22;26931;43.498;-1.506;2023-02-22T05:10:32;14.00;99.90
34644;DHT22;26931;43.498;-1.506;2023-02-22T05:12:58;14.10;99.90
34644;DHT22;26931;43.498;-1.506;2023-02-22T05:15:23;14.00;99.90
34644;DHT22;26931;43.498;-1.506;2023-02-22T05:17:50;14.10;99.90
34644;DHT22;26931;43.498;-1.506;2023-02-22T05:20:16;14.00;99.90
34644;DHT22;26931;43.498;-1.506;2023-02-22T05:22:46;14.00;99.90
34644;DHT22;26931;43.498;-1.506;2023-02-22T05:25:11;14.00;99.90
34644;DHT22;26931;43.498;-1.506;2023-02-22T05:27:37;14.10;99.90
34644;DHT22;26931;43.498;-1.506;2023-02-22T05:30:03;14.00;99.90
34644;DHT22;26931;43.498;-1.506;2023-02-22T05:32:29;14.00;99.90
34644;DHT22;26931;43.498;-1.506;2023-02-22T05:34:55;14.00;99.90
34644;DHT22;26931;43.498;-1.506;2023-02-22T05:37:20;14.00;99.90
34644;DHT22;26931;43.498;-1.506;2023-02-22T05:39:46;14.00;99.90
34644;DHT22;26931;43.498;-1.506;2023-02-22T05:42:11;14.10;99.90
34644;DHT22;26931;43.498;-1.506;2023-02-22T05:44:37;14.00;99.90
34644;DHT22;26931;43.498;-1.506;2023-02-22T05:47:02;14.00;99.90
34644;DHT22;26931;43.498;-1.506;2023-02-22T05:49:28;13.90;99.90
34644;DHT22;26931;43.498;-1.506;2023-02-22T05:51:54;14.00;99.90
34644;DHT22;26931;43.498;-1.506;2023-02-22T05:54:24;14.10;99.90
34644;DHT22;26931;43.498;-1.506;2023-02-22T05:56:49;14.10;99.90
34644;DHT22;26931;43.498;-1.506;2023-02-22T05:59:15;14.20;99.90
34644;DHT22;26931;43.498;-1.506;2023-02-22T06:01:40;14.10;99.90
34644;DHT22;26931;43.498;-1.506;2023-02-22T06:04:06;14.20;99.90
34644;DHT22;26931;43.498;-1.506;2023-02-22T06:06:32;14.20;99.90
34644;DHT22;26931;43.498;-1.506;2023-02-22T06:08:57;14.20;99.90
34644;DHT22;26931;43.498;-1.506;2023-02-22T06:11:23;14.20;99.90
34644;DHT22;26931;43.498;-1.506;2023-02-22T06:13:49;14.20;99.90
34644;DHT22;26931;43.498;-1.506;2023-02-22T06:16:15;14.20;99.90
34644;DHT22;26931;43.498;-1.506;2023-02-22T06:18:41;14.30;99.90
34644;DHT22;26931;43.498;-1.506;2023-02-22T06:21:08;14.30;99.90
34644;DHT22;26931;43.498;-1.506;2023-02-22T06:23:34;14.30;99.90
34644;DHT22;26931;43.498;-1.506;2023-02-22T06:25:59;14.30;99.90
34644;DHT22;26931;43.498;-1.506;2023-02-22T06:28:25;14.30;99.90
34644;DHT22;26931;43.498;-1.506;2023-02-22T06:30:51;14.30;99.90
34644;DHT22;26931;43.498;-1.506;2023-02-22T06:33:16;14.30;99.90
34644;DHT22;26931;43.498;-1.506;2023-02-22T06:35:42;14.40;99.90
34644;DHT22;26931;43.498;-1.506;2023-02-22T06:38:09;14.40;99.90
34644;DHT22;26931;43.498;-1.506;2023-02-22T06:40:35;14.40;99.90
34644;DHT22;26931;43.498;-1.506;2023-02-22T06:43:01;14.20;99.90
34644;DHT22;26931;43.498;-1.506;2023-02-22T06:45:26;14.40;99.90
34644;DHT22;26931;43.498;-1.506;2023-02-22T06:47:52;14.40;99.90
34644;DHT22;26931;43.498;-1.506;2023-02-22T06:52:46;14.30;99.90
34644;DHT22;26931;43.498;-1.506;2023-02-22T06:55:15;14.40;99.90
34644;DHT22;26931;43.498;-1.506;2023-02-22T06:57:41;14.40;99.90
34644;DHT22;26931;43.498;-1.506;2023-02-22T07:00:06;14.40;99.90
34644;DHT22;26931;43.498;-1.506;2023-02-22T07:02:33;14.40;99.90
34644;DHT22;26931;43.498;-1.506;2023-02-22T07:04:59;14.40;99.90
34644;DHT22;26931;43.498;-1.506;2023-02-22T07:07:24;14.40;99.90
34644;DHT22;26931;43.498;-1.506;2023-02-22T07:09:50;14.40;99.90
34644;DHT22;26931;43.498;-1.506;2023-02-22T07:12:16;14.50;99.90
34644;DHT22;26931;43.498;-1.506;2023-02-22T07:14:41;14.40;99.90
34644;DHT22;26931;43.498;-1.506;2023-02-22T07:17:07;14.50;99.90
34644;DHT22;26931;43.498;-1.506;2023-02-22T07:19:32;14.50;99.90
34644;DHT22;26931;43.498;-1.506;2023-02-22T07:21:58;14.50;99.90
34644;DHT22;26931;43.498;-1.506;2023-02-22T07:24:24;14.50;99.90
34644;DHT22;26931;43.498;-1.506;2023-02-22T07:26:51;14.50;99.90
34644;DHT22;26931;43.498;-1.506;2023-02-22T07:29:16;14.50;99.90
34644;DHT22;26931;43.498;-1.506;2023-02-22T07:31:42;14.50;99.90
34644;DHT22;26931;43.498;-1.506;2023-02-22T07:34:07;14.50;99.90
34644;DHT22;26931;43.498;-1.506;2023-02-22T07:36:33;14.50;99.90
34644;DHT22;26931;43.498;-1.506;2023-02-22T07:38:59;14.50;99.90
34644;DHT22;26931;43.498;-1.506;2023-02-22T07:41:24;14.50;99.90
34644;DHT22;26931;43.498;-1.506;2023-02-22T07:43:50;14.50;99.90
34644;DHT22;26931;43.498;-1.506;2023-02-22T07:46:15;14.40;99.90
34644;DHT22;26931;43.498;-1.506;2023-02-22T07:48:41;14.50;99.90
34644;DHT22;26931;43.498;-1.506;2023-02-22T07:51:07;14.50;99.90
34644;DHT22;26931;43.498;-1.506;2023-02-22T07:53:34;14.40;99.90
34644;DHT22;26931;43.498;-1.506;2023-02-22T07:56:00;14.50;99.90
34644;DHT22;26931;43.498;-1.506;2023-02-22T07:58:26;14.30;99.90
34644;DHT22;26931;43.498;-1.506;2023-02-22T08:00:52;14.50;99.90
34644;DHT22;26931;43.498;-1.506;2023-02-22T08:03:18;14.50;99.90
34644;DHT22;26931;43.498;-1.506;2023-02-22T08:05:45;14.50;99.90
34644;DHT22;26931;43.498;-1.506;2023-02-22T08:08:11;14.50;99.90
34644;DHT22;26931;43.498;-1.506;2023-02-22T08:10:36;14.50;99.90
34644;DHT22;26931;43.498;-1.506;2023-02-22T08:13:03;14.50;99.90
34644;DHT22;26931;43.498;-1.506;2023-02-22T08:15:30;14.50;99.90
34644;DHT22;26931;43.498;-1.506;2023-02-22T08:17:57;14.50;99.90
34644;DHT22;26931;43.498;-1.506;2023-02-22T08:20:23;14.50;99.90
34644;DHT22;26931;43.498;-1.506;2023-02-22T08:22:49;14.50;99.90
34644;DHT22;26931;43.498;-1.506;2023-02-22T08:25:16;14.40;99.90
34644;DHT22;26931;43.498;-1.506;2023-02-22T08:27:42;14.40;99.90
34644;DHT22;26931;43.498;-1.506;2023-02-22T08:30:10;14.60;99.90
34644;DHT22;26931;43.498;-1.506;2023-02-22T08:32:38;14.40;99.90
34644;DHT22;26931;43.498;-1.506;2023-02-22T08:35:04;14.40;99.90
34644;DHT22;26931;43.498;-1.506;2023-02-22T08:37:30;14.60;99.90
34644;DHT22;26931;43.498;-1.506;2023-02-22T08:39:55;14.40;99.90
34644;DHT22;26931;43.498;-1.506;2023-02-22T08:42:21;14.50;99.90
34644;DHT22;26931;43.498;-1.506;2023-02-22T08:44:47;14.50;99.90
34644;DHT22;26931;43.498;-1.506;2023-02-22T08:47:12;14.50;99.90
34644;DHT22;26931;43.498;-1.506;2023-02-22T08:49:38;14.50;99.90
34644;DHT22;26931;43.498;-1.506;2023-02-22T08:52:03;14.50;99.90
34644;DHT22;26931;43.498;-1.506;2023-02-22T08:54:29;14.50;99.90
34644;DHT22;26931;43.498;-1.506;2023-02-22T08:56:55;14.50;99.90
34644;DHT22;26931;43.498;-1.506;2023-02-22T08:59:20;14.50;99.90
34644;DHT22;26931;43.498;-1.506;2023-02-22T09:01:46;14.50;99.90
34644;DHT22;26931;43.498;-1.506;2023-02-22T09:04:12;14.50;99.90
34644;DHT22;26931;43.498;-1.506;2023-02-22T09:06:41;14.50;99.90
34644;DHT22;26931;43.498;-1.506;2023-02-22T09:09:08;14.50;99.90
34644;DHT22;26931;43.498;-1.506;2023-02-22T09:11:34;14.60;99.90
34644;DHT22;26931;43.498;-1.506;2023-02-22T09:14:00;14.60;99.90
34644;DHT22;26931;43.498;-1.506;2023-02-22T09:16:26;14.80;99.90
34644;DHT22;26931;43.498;-1.506;2023-02-22T09:18:52;14.60;99.90
34644;DHT22;26931;43.498;-1.506;2023-02-22T09:21:17;14.60;99.90
34644;DHT22;26931;43.498;-1.506;2023-02-22T09:23:45;14.60;99.90
34644;DHT22;26931;43.498;-1.506;2023-02-22T09:26:11;14.60;99.90
34644;DHT22;26931;43.498;-1.506;2023-02-22T09:28:40;14.70;99.90
34644;DHT22;26931;43.498;-1.506;2023-02-22T09:31:06;14.70;99.90
34644;DHT22;26931;43.498;-1.506;2023-02-22T09:33:32;14.70;99.90
34644;DHT22;26931;43.498;-1.506;2023-02-22T09:35:58;14.70;99.90
34644;DHT22;26931;43.498;-1.506;2023-02-22T09:38:25;14.80;99.90
34644;DHT22;26931;43.498;-1.506;2023-02-22T09:48:24;14.80;99.90
34644;DHT22;26931;43.498;-1.506;2023-02-22T09:50:51;14.80;99.90
34644;DHT22;26931;43.498;-1.506;2023-02-22T09:53:30;15.00;99.90
34644;DHT22;26931;43.498;-1.506;2023-02-22T09:56:03;14.90;99.90
34644;DHT22;26931;43.498;-1.506;2023-02-22T09:58:32;14.80;99.90
34644;DHT22;26931;43.498;-1.506;2023-02-22T10:01:18;14.80;99.90
34644;DHT22;26931;43.498;-1.506;2023-02-22T10:03:53;14.80;99.90
34644;DHT22;26931;43.498;-1.506;2023-02-22T10:06:21;14.90;99.90
34644;DHT22;26931;43.498;-1.506;2023-02-22T10:08:48;14.90;99.90
34644;DHT22;26931;43.498;-1.506;2023-02-22T10:13:47;14.90;99.90
34644;DHT22;26931;43.498;-1.506;2023-02-22T10:16:19;14.90;99.90
34644;DHT22;26931;43.498;-1.506;2023-02-22T10:28:38;14.90;99.90
34644;DHT22;26931;43.498;-1.506;2023-02-22T10:31:06;14.90;99.90
34644;DHT22;26931;43.498;-1.506;2023-02-22T10:33:35;14.90;99.90
34644;DHT22;26931;43.498;-1.506;2023-02-22T10:36:03;15.00;99.90
34644;DHT22;26931;43.498;-1.506;2023-02-22T10:38:29;15.00;99.90
34644;DHT22;26931;43.498;-1.506;2023-02-22T10:41:03;15.00;99.90
34644;DHT22;26931;43.498;-1.506;2023-02-22T10:43:39;15.00;99.90
34644;DHT22;26931;43.498;-1.506;2023-02-22T10:46:06;15.00;99.90
34644;DHT22;26931;43.498;-1.506;2023-02-22T10:48:33;15.00;99.90
34644;DHT22;26931;43.498;-1.506;2023-02-22T10:51:01;15.00;99.90
34644;DHT22;26931;43.498;-1.506;2023-02-22T10:53:28;15.00;99.90
34644;DHT22;26931;43.498;-1.506;2023-02-22T10:58:57;14.90;99.90
34644;DHT22;26931;43.498;-1.506;2023-02-22T11:03:58;15.10;99.90
34644;DHT22;26931;43.498;-1.506;2023-02-22T11:06:24;15.10;99.90
34644;DHT22;26931;43.498;-1.506;2023-02-22T11:08:50;15.10;99.90
34644;DHT22;26931;43.498;-1.506;2023-02-22T11:11:23;15.10;99.90
34644;DHT22;26931;43.498;-1.506;2023-02-22T11:13:53;15.00;99.90
34644;DHT22;26931;43.498;-1.506;2023-02-22T11:21:42;15.20;99.90
34644;DHT22;26931;43.498;-1.506;2023-02-22T11:24:09;15.20;99.80
34644;DHT22;26931;43.498;-1.506;2023-02-22T11:26:36;15.30;99.80
34644;DHT22;26931;43.498;-1.506;2023-02-22T11:29:07;15.30;99.70
34644;DHT22;26931;43.498;-1.506;2023-02-22T11:31:39;15.30;99.70
34644;DHT22;26931;43.498;-1.506;2023-02-22T11:34:05;15.40;99.70
34644;DHT22;26931;43.498;-1.506;2023-02-22T11:36:33;15.40;99.60
34644;DHT22;26931;43.498;-1.506;2023-02-22T11:39:02;15.40;99.50
34644;DHT22;26931;43.498;-1.506;2023-02-22T11:41:33;15.50;99.50
34644;DHT22;26931;43.498;-1.506;2023-02-22T11:46:45;15.50;99.30
34644;DHT22;26931;43.498;-1.506;2023-02-22T11:49:11;15.50;99.30
34644;DHT22;26931;43.498;-1.506;2023-02-22T11:51:50;15.40;99.30
34644;DHT22;26931;43.498;-1.506;2023-02-22T11:54:20;15.40;99.30
34644;DHT22;26931;43.498;-1.506;2023-02-22T11:59:46;15.40;99.20
34644;DHT22;26931;43.498;-1.506;2023-02-22T12:07:23;15.50;99.10
34644;DHT22;26931;43.498;-1.506;2023-02-22T12:20:04;15.50;98.80
34644;DHT22;26931;43.498;-1.506;2023-02-22T12:22:35;15.60;98.70
34644;DHT22;26931;43.498;-1.506;2023-02-22T12:25:04;15.60;98.60
34644;DHT22;26931;43.498;-1.506;2023-02-22T12:27:39;15.70;98.50
34644;DHT22;26931;43.498;-1.506;2023-02-22T12:30:06;15.70;98.40
34644;DHT22;26931;43.498;-1.506;2023-02-22T12:35:08;15.50;98.30
34644;DHT22;26931;43.498;-1.506;2023-02-22T12:37:39;15.60;98.20
34644;DHT22;26931;43.498;-1.506;2023-02-22T12:45:53;15.40;98.10
34644;DHT22;26931;43.498;-1.506;2023-02-22T12:47:54;15.50;98.10
34644;DHT22;26931;43.498;-1.506;2023-02-22T12:50:25;15.40;98.10
34644;DHT22;26931;43.498;-1.506;2023-02-22T12:52:56;15.40;98.10
34644;DHT22;26931;43.498;-1.506;2023-02-22T12:55:43;15.40;98.20
34644;DHT22;26931;43.498;-1.506;2023-02-22T13:01:03;15.30;98.30
34644;DHT22;26931;43.498;-1.506;2023-02-22T13:29:27;15.10;98.70
34644;DHT22;26931;43.498;-1.506;2023-02-22T13:37:02;15.00;98.90
34644;DHT22;26931;43.498;-1.506;2023-02-22T13:42:10;15.00;99.00
34644;DHT22;26931;43.498;-1.506;2023-02-22T13:52:34;15.00;99.00
34644;DHT22;26931;43.498;-1.506;2023-02-22T13:55:03;15.00;99.00
34644;DHT22;26931;43.498;-1.506;2023-02-22T13:57:42;15.00;99.00
34644;DHT22;26931;43.498;-1.506;2023-02-22T14:03:01;15.10;99.00
34644;DHT22;26931;43.498;-1.506;2023-02-22T14:08:06;15.20;98.80
34644;DHT22;26931;43.498;-1.506;2023-02-22T14:10:44;15.20;98.70
34644;DHT22;26931;43.498;-1.506;2023-02-22T14:13:10;15.20;98.60
34644;DHT22;26931;43.498;-1.506;2023-02-22T14:15:38;15.30;98.60
34644;DHT22;26931;43.498;-1.506;2023-02-22T14:18:21;15.30;98.50
34644;DHT22;26931;43.498;-1.506;2023-02-22T14:20:48;15.30;98.40
34644;DHT22;26931;43.498;-1.506;2023-02-22T14:23:33;15.30;98.30
34644;DHT22;26931;43.498;-1.506;2023-02-22T14:31:26;15.30;98.10
34644;DHT22;26931;43.498;-1.506;2023-02-22T14:33:54;15.40;98.00
34644;DHT22;26931;43.498;-1.506;2023-02-22T14:36:31;15.30;97.90
34644;DHT22;26931;43.498;-1.506;2023-02-22T14:39:04;15.20;97.80
34644;DHT22;26931;43.498;-1.506;2023-02-22T14:41:30;15.30;97.80
34644;DHT22;26931;43.498;-1.506;2023-02-22T14:43:57;15.30;97.70
34644;DHT22;26931;43.498;-1.506;2023-02-22T14:46:24;15.30;97.60
34644;DHT22;26931;43.498;-1.506;2023-02-22T14:48:53;15.30;97.60
34644;DHT22;26931;43.498;-1.506;2023-02-22T14:51:24;15.30;97.50
34644;DHT22;26931;43.498;-1.506;2023-02-22T14:53:54;15.40;97.80
34644;DHT22;26931;43.498;-1.506;2023-02-22T14:56:22;15.40;97.70
34644;DHT22;26931;43.498;-1.506;2023-02-22T14:58:57;15.30;97.40
34644;DHT22;26931;43.498;-1.506;2023-02-22T15:01:33;15.40;97.40
34644;DHT22;26931;43.498;-1.506;2023-02-22T15:04:20;15.40;97.30
34644;DHT22;26931;43.498;-1.506;2023-02-22T15:06:47;15.40;97.30
34644;DHT22;26931;43.498;-1.506;2023-02-22T15:09:22;15.30;97.20
34644;DHT22;26931;43.498;-1.506;2023-02-22T15:11:52;15.40;97.20
34644;DHT22;26931;43.498;-1.506;2023-02-22T15:14:20;15.40;97.20
34644;DHT22;26931;43.498;-1.506;2023-02-22T15:16:47;15.30;97.10
34644;DHT22;26931;43.498;-1.506;2023-02-22T15:19:13;15.40;97.10
34644;DHT22;26931;43.498;-1.506;2023-02-22T15:21:45;15.40;97.00
34644;DHT22;26931;43.498;-1.506;2023-02-22T15:24:11;15.40;96.90
34644;DHT22;26931;43.498;-1.506;2023-02-22T15:26:45;15.40;96.90
34644;DHT22;26931;43.498;-1.506;2023-02-22T15:29:15;15.40;96.80
34644;DHT22;26931;43.498;-1.506;2023-02-22T15:31:43;15.40;96.70
34644;DHT22;26931;43.498;-1.506;2023-02-22T15:36:37;15.40;96.60
34644;DHT22;26931;43.498;-1.506;2023-02-22T15:39:03;15.50;96.60
34644;DHT22;26931;43.498;-1.506;2023-02-22T15:41:33;15.50;96.50
34644;DHT22;26931;43.498;-1.506;2023-02-22T15:44:04;15.50;96.80
34644;DHT22;26931;43.498;-1.506;2023-02-22T15:46:30;15.50;96.50
34644;DHT22;26931;43.498;-1.506;2023-02-22T15:49:03;15.50;96.50
34644;DHT22;26931;43.498;-1.506;2023-02-22T15:51:28;15.50;96.40
34644;DHT22;26931;43.498;-1.506;2023-02-22T15:53:54;15.60;96.30
34644;DHT22;26931;43.498;-1.506;2023-02-22T15:56:24;15.50;96.20
34644;DHT22;26931;43.498;-1.506;2023-02-22T15:58:50;15.50;96.20
34644;DHT22;26931;43.498;-1.506;2023-02-22T16:01:16;15.40;96.10
34644;DHT22;26931;43.498;-1.506;2023-02-22T16:03:44;15.50;96.10
34644;DHT22;26931;43.498;-1.506;2023-02-22T16:06:12;15.40;96.00
34644;DHT22;26931;43.498;-1.506;2023-02-22T16:08:40;15.40;96.00
34644;DHT22;26931;43.498;-1.506;2023-02-22T16:11:08;15.40;95.90
34644;DHT22;26931;43.498;-1.506;2023-02-22T16:13:38;15.40;95.90
34644;DHT22;26931;43.498;-1.506;2023-02-22T16:18:49;15.30;95.90
34644;DHT22;26931;43.498;-1.506;2023-02-22T16:21:20;15.40;95.80
34644;DHT22;26931;43.498;-1.506;2023-02-22T16:23:49;15.30;95.80
34644;DHT22;26931;43.498;-1.506;2023-02-22T16:28:49;15.30;95.80
34644;DHT22;26931;43.498;-1.506;2023-02-22T16:31:29;15.30;95.80
34644;DHT22;26931;43.498;-1.506;2023-02-22T16:33:58;15.30;95.80
34644;DHT22;26931;43.498;-1.506;2023-02-22T16:36:35;15.30;95.80
34644;DHT22;26931;43.498;-1.506;2023-02-22T16:39:03;15.30;95.80
34644;DHT22;26931;43.498;-1.506;2023-02-22T16:41:31;15.20;95.80
34644;DHT22;26931;43.498;-1.506;2023-02-22T16:43:57;15.30;95.90
34644;DHT22;26931;43.498;-1.506;2023-02-22T16:46:23;15.20;95.90
34644;DHT22;26931;43.498;-1.506;2023-02-22T16:48:49;15.20;95.90
34644;DHT22;26931;43.498;-1.506;2023-02-22T16:51:19;15.20;95.90
34644;DHT22;26931;43.498;-1.506;2023-02-22T16:53:45;15.10;96.00
34644;DHT22;26931;43.498;-1.506;2023-02-22T16:56:11;15.20;96.00
34644;DHT22;26931;43.498;-1.506;2023-02-22T16:58:40;15.00;96.00
34644;DHT22;26931;43.498;-1.506;2023-02-22T17:01:06;15.10;96.10
34644;DHT22;26931;43.498;-1.506;2023-02-22T17:03:32;15.10;96.00
34644;DHT22;26931;43.498;-1.506;2023-02-22T17:05:58;15.10;96.00
34644;DHT22;26931;43.498;-1.506;2023-02-22T17:08:23;15.10;96.00
34644;DHT22;26931;43.498;-1.506;2023-02-22T17:10:49;15.00;96.00
34644;DHT22;26931;43.498;-1.506;2023-02-22T17:13:17;15.00;96.00
34644;DHT22;26931;43.498;-1.506;2023-02-22T17:15:44;14.90;96.10
34644;DHT22;26931;43.498;-1.506;2023-02-22T17:18:13;15.00;96.10
34644;DHT22;26931;43.498;-1.506;2023-02-22T17:20:40;15.00;96.10
34644;DHT22;26931;43.498;-1.506;2023-02-22T17:23:07;15.00;96.10
34644;DHT22;26931;43.498;-1.506;2023-02-22T17:25:35;15.00;96.10
34644;DHT22;26931;43.498;-1.506;2023-02-22T17:28:01;15.00;96.10
34644;DHT22;26931;43.498;-1.506;2023-02-22T17:30:27;14.90;96.10
34644;DHT22;26931;43.498;-1.506;2023-02-22T17:32:52;15.00;96.10
34644;DHT22;26931;43.498;-1.506;2023-02-22T17:35:20;15.00;96.20
34644;DHT22;26931;43.498;-1.506;2023-02-22T17:37:51;14.90;96.20
34644;DHT22;26931;43.498;-1.506;2023-02-22T17:40:16;15.00;96.30
34644;DHT22;26931;43.498;-1.506;2023-02-22T17:42:42;14.90;96.30
34644;DHT22;26931;43.498;-1.506;2023-02-22T17:45:09;14.90;96.30
34644;DHT22;26931;43.498;-1.506;2023-02-22T17:47:41;14.90;96.30
34644;DHT22;26931;43.498;-1.506;2023-02-22T17:50:10;15.00;96.40
34644;DHT22;26931;43.498;-1.506;2023-02-22T17:52:36;15.00;96.40
34644;DHT22;26931;43.498;-1.506;2023-02-22T17:55:02;14.90;96.40
34644;DHT22;26931;43.498;-1.506;2023-02-22T17:57:27;14.90;96.50
34644;DHT22;26931;43.498;-1.506;2023-02-22T17:59:55;14.90;96.50